Time;durP1;ratioP1;P1;durP2;ratioP2;P2;SDS_P1;SDS_P2;PMS_P1;PMS_P2;Temp;Humidity;BMP_temperature;BMP_pressure;BME280_temperature;BME280_humidity;BME280_pressure;Samples;Min_cycle;Max_cycle;Signal;HPM_P1;HPM_P2
2021/03/03 00:01:58;;;;;;;42.17;26.27;;;11.80;99.90;;;;;;5082321;28;20251;-84
2021/03/03 00:04:25;;;;;;;37.03;25.17;;;11.70;99.90;;;;;;5082467;28;20199;-83
2021/03/03 00:06:51;;;;;;;36.33;26.03;;;11.70;99.90;;;;;;5077450;28;20273;-85
2021/03/03 00:09:16;;;;;;;41.57;25.37;;;11.80;99.90;;;;;;5076775;28;20288;-83
2021/03/03 00:11:42;;;;;;;37.63;25.10;;;11.70;99.90;;;;;;5075725;28;20254;-84
2021/03/03 00:14:07;;;;;;;35.77;25.67;;;11.70;99.90;;;;;;5076655;28;20160;-79
2021/03/03 00:16:35;;;;;;;39.37;26.57;;;11.60;99.90;;;;;;5074700;28;20174;-83
2021/03/03 00:19:01;;;;;;;42.23;25.47;;;11.50;99.90;;;;;;5075266;28;20321;-84
2021/03/03 00:21:26;;;;;;;36.30;25.50;;;11.50;99.90;;;;;;5075679;28;20199;-84
2021/03/03 00:23:52;;;;;;;35.23;26.13;;;11.50;99.90;;;;;;5075130;28;20229;-84
2021/03/03 00:26:18;;;;;;;39.73;26.13;;;11.40;99.90;;;;;;5078691;28;20245;-81
2021/03/03 00:28:46;;;;;;;38.00;24.47;;;11.30;99.90;;;;;;5087016;28;20211;-85
2021/03/03 00:31:12;;;;;;;34.90;25.43;;;11.10;99.90;;;;;;5095578;28;20214;-83
2021/03/03 00:33:37;;;;;;;37.20;24.80;;;11.10;99.90;;;;;;5095321;28;20179;-83
2021/03/03 00:36:03;;;;;;;35.03;24.13;;;10.90;99.90;;;;;;5095338;28;20163;-80
2021/03/03 00:38:29;;;;;;;44.50;26.33;;;10.90;99.90;;;;;;5102061;28;20239;-81
2021/03/03 00:40:54;;;;;;;35.97;25.73;;;11.00;99.90;;;;;;5099411;28;20179;-82
2021/03/03 00:43:20;;;;;;;39.87;25.47;;;11.10;99.90;;;;;;5094599;28;20656;-83
2021/03/03 00:45:45;;;;;;;37.07;24.80;;;11.10;99.90;;;;;;5094557;28;20176;-85
2021/03/03 00:48:11;;;;;;;36.43;25.37;;;11.10;99.90;;;;;;5095174;28;20170;-83
2021/03/03 00:50:37;;;;;;;36.60;24.77;;;10.90;99.90;;;;;;5095674;28;20183;-83
2021/03/03 00:53:08;;;;;;;36.57;25.80;;;10.70;99.90;;;;;;5096971;28;20168;-84
2021/03/03 00:55:34;;;;;;;36.27;25.53;;;10.50;99.90;;;;;;5097262;28;20172;-83
2021/03/03 00:57:59;;;;;;;34.00;25.60;;;10.60;99.90;;;;;;5099000;28;20305;-83
2021/03/03 01:00:26;;;;;;;37.10;26.40;;;10.70;99.90;;;;;;5102232;28;20167;-83
2021/03/03 01:02:53;;;;;;;35.13;25.43;;;10.80;99.90;;;;;;5102007;28;20207;-84
2021/03/03 01:05:19;;;;;;;35.30;26.17;;;10.80;99.90;;;;;;5101568;28;20172;-80
2021/03/03 01:07:45;;;;;;;38.40;26.53;;;10.70;99.90;;;;;;5105538;28;20202;-84
2021/03/03 01:10:11;;;;;;;38.63;26.17;;;10.60;99.90;;;;;;5116377;28;20180;-75
2021/03/03 01:12:37;;;;;;;38.97;26.77;;;10.50;99.90;;;;;;5113365;27;20156;-85
2021/03/03 01:15:04;;;;;;;38.70;26.67;;;10.60;99.90;;;;;;5112114;28;20372;-85
2021/03/03 01:17:29;;;;;;;41.50;26.87;;;10.70;99.90;;;;;;5110412;28;20172;-83
2021/03/03 01:19:56;;;;;;;39.50;26.27;;;10.90;99.90;;;;;;5106524;28;20247;-84
2021/03/03 01:22:22;;;;;;;35.47;26.10;;;10.90;99.90;;;;;;5099599;28;20166;-84
2021/03/03 01:24:47;;;;;;;35.20;26.00;;;10.90;99.90;;;;;;5111673;28;20223;-83
2021/03/03 01:27:13;;;;;;;35.40;25.57;;;10.90;99.90;;;;;;5120020;28;20223;-82
2021/03/03 01:29:38;;;;;;;40.00;27.53;;;10.90;99.90;;;;;;5120665;27;20170;-82
2021/03/03 01:32:04;;;;;;;37.73;26.13;;;11.00;99.90;;;;;;5119061;27;20202;-77
2021/03/03 01:34:30;;;;;;;37.80;25.27;;;10.90;99.90;;;;;;5112354;28;20183;-81
2021/03/03 01:36:56;;;;;;;35.43;26.23;;;10.90;99.90;;;;;;5115306;28;20172;-82
2021/03/03 01:39:22;;;;;;;37.00;26.90;;;10.90;99.90;;;;;;5113557;28;20232;-84
2021/03/03 01:41:47;;;;;;;39.97;24.63;;;10.80;99.90;;;;;;5103176;28;20164;-79
2021/03/03 01:44:16;;;;;;;34.53;26.30;;;10.70;99.90;;;;;;5103240;28;20328;-83
2021/03/03 01:46:49;;;;;;;37.50;26.27;;;10.70;99.90;;;;;;5102900;28;20155;-83
2021/03/03 01:49:15;;;;;;;34.33;25.13;;;10.60;99.90;;;;;;5101949;28;20167;-84
2021/03/03 01:51:40;;;;;;;43.43;26.70;;;10.70;99.90;;;;;;5105625;28;20160;-85
2021/03/03 01:54:07;;;;;;;38.20;26.67;;;10.70;99.90;;;;;;5106058;28;20175;-83
2021/03/03 01:56:33;;;;;;;39.80;26.37;;;10.70;99.90;;;;;;5099164;28;20283;-84
2021/03/03 01:59:00;;;;;;;39.90;25.60;;;10.70;99.90;;;;;;5098361;28;20182;-84
2021/03/03 02:01:26;;;;;;;39.00;25.27;;;10.60;99.90;;;;;;5098766;28;20170;-84
2021/03/03 02:03:51;;;;;;;37.50;24.77;;;10.50;99.90;;;;;;5097527;28;20203;-84
2021/03/03 02:06:27;;;;;;;38.03;26.63;;;10.50;99.90;;;;;;5098111;28;20222;-84
2021/03/03 02:09:09;;;;;;;38.93;26.53;;;10.60;99.90;;;;;;5098059;28;20170;-83
2021/03/03 02:11:47;;;;;;;40.33;25.03;;;10.60;99.90;;;;;;5097643;28;20236;-83
2021/03/03 02:14:19;;;;;;;34.17;24.70;;;10.60;99.90;;;;;;5098199;28;20168;-84
2021/03/03 02:16:47;;;;;;;39.93;25.37;;;10.50;99.90;;;;;;5099614;28;20686;-84
2021/03/03 02:19:23;;;;;;;36.87;24.70;;;10.40;99.90;;;;;;5099333;28;20207;-84
2021/03/03 02:22:02;;;;;;;34.50;25.23;;;10.30;99.90;;;;;;5111656;28;20172;-82
2021/03/03 02:24:36;;;;;;;33.87;24.73;;;10.20;99.90;;;;;;5119679;28;20199;-80
2021/03/03 02:27:02;;;;;;;37.63;26.17;;;10.00;99.90;;;;;;5119213;27;20190;-83
2021/03/03 02:29:29;;;;;;;35.60;25.37;;;9.90;99.90;;;;;;5116373;28;20207;-84
2021/03/03 02:31:55;;;;;;;38.23;25.40;;;9.80;99.90;;;;;;5100871;28;21012;-84
2021/03/03 02:34:25;;;;;;;38.10;25.27;;;9.70;99.90;;;;;;5099128;28;20681;-81
2021/03/03 02:36:51;;;;;;;33.57;24.53;;;9.70;99.90;;;;;;5098779;28;20223;-84
2021/03/03 02:39:23;;;;;;;33.93;24.63;;;9.80;99.90;;;;;;5099299;28;20172;-84
2021/03/03 02:41:50;;;;;;;34.17;24.57;;;9.90;99.90;;;;;;5100979;28;20171;-84
2021/03/03 02:44:15;;;;;;;42.43;26.27;;;10.00;99.90;;;;;;5101631;28;20204;-83
2021/03/03 02:46:47;;;;;;;40.20;26.40;;;10.20;99.90;;;;;;5100067;28;20212;-83
2021/03/03 02:49:16;;;;;;;42.43;27.43;;;10.30;99.90;;;;;;5104557;28;20179;-82
2021/03/03 02:51:41;;;;;;;36.27;25.10;;;10.40;99.90;;;;;;5107381;28;20167;-82
2021/03/03 02:54:11;;;;;;;36.53;25.97;;;10.50;99.90;;;;;;5106799;28;20164;-82
2021/03/03 02:56:37;;;;;;;35.57;25.43;;;10.50;99.90;;;;;;5110411;28;20283;-83
2021/03/03 02:59:13;;;;;;;32.80;24.30;;;10.40;99.90;;;;;;5106826;28;20218;-84
2021/03/03 03:01:41;;;;;;;39.07;25.83;;;10.40;99.90;;;;;;5103801;28;20181;-81
2021/03/03 03:04:18;;;;;;;36.80;26.97;;;10.40;99.90;;;;;;5100864;28;20213;-83
2021/03/03 03:06:44;;;;;;;36.17;25.37;;;10.40;99.90;;;;;;5097989;28;20571;-78
2021/03/03 03:09:16;;;;;;;39.53;25.73;;;10.50;99.90;;;;;;5095442;28;20187;-83
2021/03/03 03:11:52;;;;;;;39.67;25.90;;;10.40;99.90;;;;;;5097739;28;20176;-83
2021/03/03 03:14:24;;;;;;;34.53;24.20;;;10.50;99.90;;;;;;5097629;28;20175;-84
2021/03/03 03:16:53;;;;;;;39.13;25.17;;;10.50;99.90;;;;;;5099463;28;20670;-84
2021/03/03 03:19:23;;;;;;;37.87;26.03;;;10.40;99.90;;;;;;5105230;28;20194;-83
2021/03/03 03:21:50;;;;;;;36.77;25.37;;;10.30;99.90;;;;;;5099243;28;20243;-83
2021/03/03 03:24:20;;;;;;;38.97;25.53;;;10.30;99.90;;;;;;5098289;28;20195;-84
2021/03/03 03:26:48;;;;;;;39.70;25.17;;;10.30;99.90;;;;;;5098886;28;20191;-81
2021/03/03 03:29:15;;;;;;;37.57;26.23;;;10.40;99.90;;;;;;5096711;28;20164;-84
2021/03/03 03:31:43;;;;;;;41.50;26.17;;;10.40;99.90;;;;;;5096807;28;20164;-82
2021/03/03 03:34:11;;;;;;;34.47;25.20;;;10.40;99.90;;;;;;5096799;28;20173;-83
2021/03/03 03:36:38;;;;;;;33.80;25.97;;;10.50;99.90;;;;;;5097633;28;20174;-78
2021/03/03 03:39:13;;;;;;;32.60;25.37;;;10.60;99.90;;;;;;5097919;28;20195;-84
2021/03/03 03:41:40;;;;;;;34.23;25.27;;;10.60;99.90;;;;;;5095745;28;20494;-83
2021/03/03 03:44:09;;;;;;;41.43;27.50;;;10.70;99.90;;;;;;5097046;28;20187;-82
2021/03/03 03:46:35;;;;;;;34.93;25.60;;;10.70;99.90;;;;;;5096757;28;20164;-76
2021/03/03 03:49:03;;;;;;;33.93;25.83;;;10.60;99.90;;;;;;5094856;28;20152;-78
2021/03/03 03:51:29;;;;;;;33.43;24.07;;;10.60;99.90;;;;;;5094889;28;20193;-75
2021/03/03 03:53:55;;;;;;;37.33;25.60;;;10.70;99.90;;;;;;5095357;28;20185;-77
2021/03/03 03:56:23;;;;;;;34.97;25.60;;;10.70;99.90;;;;;;5094676;28;20168;-77
2021/03/03 03:58:48;;;;;;;37.77;25.73;;;10.80;99.90;;;;;;5095290;28;20168;-78
2021/03/03 04:01:14;;;;;;;39.23;25.90;;;10.80;99.90;;;;;;5094495;28;20284;-77
2021/03/03 04:03:40;;;;;;;35.90;25.17;;;10.80;99.90;;;;;;5094555;28;20244;-76
2021/03/03 04:06:06;;;;;;;41.33;26.57;;;10.80;99.90;;;;;;5093544;28;20172;-76
2021/03/03 04:08:32;;;;;;;36.20;25.60;;;11.00;99.90;;;;;;5093938;28;20184;-79
2021/03/03 04:10:58;;;;;;;37.90;25.70;;;10.80;99.90;;;;;;5093403;28;20225;-77
2021/03/03 04:13:24;;;;;;;37.50;26.53;;;10.70;99.90;;;;;;5094135;28;20191;-78
2021/03/03 04:15:50;;;;;;;38.10;27.43;;;10.70;99.90;;;;;;5093864;28;20175;-76
2021/03/03 04:18:16;;;;;;;37.73;25.57;;;10.50;99.90;;;;;;5093782;28;20177;-77
2021/03/03 04:20:41;;;;;;;34.63;24.90;;;10.20;99.90;;;;;;5093949;28;20698;-77
2021/03/03 04:23:10;;;;;;;40.80;25.23;;;10.10;99.90;;;;;;5096249;28;20203;-84
2021/03/03 04:25:36;;;;;;;37.83;25.57;;;9.90;99.90;;;;;;5096521;28;20191;-79
2021/03/03 04:28:06;;;;;;;37.60;25.27;;;9.60;99.90;;;;;;5099202;28;20548;-79
2021/03/03 04:30:34;;;;;;;40.57;25.30;;;9.50;99.90;;;;;;5102978;28;20217;-84
2021/03/03 04:33:00;;;;;;;38.17;26.50;;;9.60;99.90;;;;;;5097229;28;20175;-80
2021/03/03 04:35:25;;;;;;;33.37;24.23;;;9.80;99.90;;;;;;5100092;28;20172;-81
2021/03/03 04:37:51;;;;;;;38.53;26.27;;;10.00;99.90;;;;;;5100111;28;20231;-83
2021/03/03 04:40:19;;;;;;;38.27;26.27;;;9.80;99.90;;;;;;5101042;28;20183;-81
2021/03/03 04:42:44;;;;;;;38.03;25.70;;;9.60;99.90;;;;;;5114656;28;20155;-77
2021/03/03 04:45:12;;;;;;;40.00;26.07;;;9.50;99.90;;;;;;5111447;28;20675;-81
2021/03/03 04:47:38;;;;;;;38.60;26.97;;;9.60;99.90;;;;;;5105910;28;20360;-83
2021/03/03 04:50:07;;;;;;;37.63;26.63;;;9.60;99.90;;;;;;5103041;28;20179;-82
2021/03/03 04:52:36;;;;;;;40.77;25.00;;;9.70;99.90;;;;;;5100101;28;20156;-83
2021/03/03 04:55:04;;;;;;;43.70;25.83;;;9.70;99.90;;;;;;5099313;28;20680;-80
2021/03/03 04:57:30;;;;;;;40.97;26.17;;;9.80;99.90;;;;;;5099298;28;20187;-84
2021/03/03 04:59:58;;;;;;;36.87;25.50;;;9.80;99.90;;;;;;5098650;28;20620;-83
2021/03/03 05:02:24;;;;;;;34.07;24.87;;;9.70;99.90;;;;;;5099466;28;20242;-82
2021/03/03 05:04:49;;;;;;;37.47;26.07;;;9.60;99.90;;;;;;5105820;28;20241;-76
2021/03/03 05:07:15;;;;;;;41.53;24.23;;;9.60;99.90;;;;;;5112203;28;20227;-82
2021/03/03 05:09:40;;;;;;;33.67;25.53;;;9.80;99.90;;;;;;5108972;28;20537;-76
2021/03/03 05:12:07;;;;;;;34.67;25.83;;;9.80;99.90;;;;;;5109429;28;20658;-81
2021/03/03 05:14:33;;;;;;;37.80;25.87;;;9.70;99.90;;;;;;5112155;28;20179;-78
2021/03/03 05:16:59;;;;;;;41.37;26.13;;;9.60;99.90;;;;;;5104930;28;20158;-78
2021/03/03 05:19:24;;;;;;;42.90;25.87;;;9.90;99.90;;;;;;5099658;28;20221;-83
2021/03/03 05:21:52;;;;;;;39.97;25.87;;;9.90;99.90;;;;;;5099232;28;20627;-81
2021/03/03 05:24:18;;;;;;;38.73;25.20;;;9.80;99.90;;;;;;5098394;28;20238;-83
2021/03/03 05:26:44;;;;;;;40.47;25.90;;;9.90;99.90;;;;;;5098571;28;20183;-85
2021/03/03 05:29:09;;;;;;;38.90;27.07;;;10.10;99.90;;;;;;5097356;28;20168;-82
2021/03/03 05:31:35;;;;;;;41.10;25.77;;;10.20;99.90;;;;;;5097228;28;20246;-77
2021/03/03 05:34:01;;;;;;;37.37;25.73;;;10.00;99.90;;;;;;5095424;28;20167;-77
2021/03/03 05:36:27;;;;;;;48.57;26.70;;;10.00;99.90;;;;;;5096875;28;20170;-76
2021/03/03 05:38:53;;;;;;;37.77;26.13;;;10.10;99.90;;;;;;5095391;28;20171;-77
2021/03/03 05:41:24;;;;;;;43.27;26.63;;;10.20;99.90;;;;;;5096612;28;20167;-79
2021/03/03 05:43:50;;;;;;;35.57;26.33;;;10.30;99.90;;;;;;5095912;28;20210;-76
2021/03/03 05:46:23;;;;;;;36.90;25.13;;;10.40;99.90;;;;;;5095974;28;20164;-76
2021/03/03 05:49:03;;;;;;;39.47;26.00;;;10.50;99.90;;;;;;5096397;28;20168;-77
2021/03/03 05:51:30;;;;;;;34.03;25.10;;;10.50;99.90;;;;;;5096097;28;20600;-77
2021/03/03 05:53:58;;;;;;;39.40;26.83;;;10.50;99.90;;;;;;5095053;28;20167;-77
2021/03/03 05:56:24;;;;;;;34.27;25.57;;;10.60;99.90;;;;;;5095966;28;20164;-76
2021/03/03 05:58:50;;;;;;;38.13;25.77;;;10.50;99.90;;;;;;5097841;28;20152;-79
2021/03/03 06:01:17;;;;;;;44.13;27.17;;;10.50;99.90;;;;;;5096650;28;20176;-80
2021/03/03 06:03:43;;;;;;;39.63;26.17;;;10.50;99.90;;;;;;5098360;28;20187;-80
2021/03/03 06:06:12;;;;;;;43.70;26.63;;;10.50;99.90;;;;;;5097361;28;20174;-81
2021/03/03 06:08:38;;;;;;;37.37;25.67;;;10.50;99.90;;;;;;5098053;28;20538;-82
2021/03/03 06:11:04;;;;;;;34.50;26.10;;;10.60;99.90;;;;;;5097441;28;20187;-84
2021/03/03 06:13:31;;;;;;;43.90;27.43;;;10.60;99.90;;;;;;5097826;28;20199;-82
2021/03/03 06:15:57;;;;;;;40.07;26.70;;;10.70;99.90;;;;;;5096404;28;20168;-84
2021/03/03 06:18:24;;;;;;;38.23;26.30;;;10.60;99.90;;;;;;5098182;28;20172;-84
2021/03/03 06:20:52;;;;;;;48.20;27.90;;;10.60;99.90;;;;;;5097699;28;20576;-85
2021/03/03 06:23:22;;;;;;;47.70;28.23;;;10.60;99.90;;;;;;5097797;28;20290;-85
2021/03/03 06:25:49;;;;;;;50.10;27.80;;;10.70;99.90;;;;;;5103489;28;20190;-82
2021/03/03 06:28:41;;;;;;;47.93;27.27;;;10.70;99.90;;;;;;5096063;28;20167;-84
2021/03/03 06:31:22;;;;;;;35.53;25.93;;;10.60;99.90;;;;;;5081333;28;20176;-83
2021/03/03 06:33:48;;;;;;;41.77;26.87;;;10.50;99.90;;;;;;5076937;28;20179;-81
2021/03/03 06:36:26;;;;;;;40.43;27.03;;;10.40;99.90;;;;;;5084310;28;20260;-80
2021/03/03 06:38:52;;;;;;;49.57;29.07;;;10.40;99.90;;;;;;5084828;28;20239;-81
2021/03/03 06:41:19;;;;;;;38.37;26.63;;;10.20;99.90;;;;;;5100067;28;20172;-78
2021/03/03 06:43:58;;;;;;;45.10;28.20;;;10.20;99.90;;;;;;5100635;28;20561;-81
2021/03/03 06:46:24;;;;;;;54.47;28.67;;;10.40;99.90;;;;;;5077649;28;20164;-79
2021/03/03 06:48:51;;;;;;;55.47;27.77;;;10.30;99.90;;;;;;5078933;28;20183;-76
2021/03/03 06:51:38;;;;;;;53.83;27.57;;;10.20;99.90;;;;;;5097215;28;20507;-79
2021/03/03 06:54:16;;;;;;;48.90;27.43;;;10.20;99.90;;;;;;5099916;28;20179;-77
2021/03/03 06:56:47;;;;;;;52.33;27.33;;;10.30;99.90;;;;;;5079159;28;20247;-78
2021/03/03 06:59:27;;;;;;;47.37;28.03;;;10.30;99.90;;;;;;5086672;28;20642;-77
2021/03/03 07:01:57;;;;;;;46.53;27.27;;;10.40;99.90;;;;;;5096669;28;20191;-76
2021/03/03 07:04:27;;;;;;;38.63;26.70;;;10.20;99.90;;;;;;5086404;28;20532;-78
2021/03/03 07:06:55;;;;;;;53.93;27.17;;;10.20;99.90;;;;;;5090011;28;20168;-77
2021/03/03 07:09:24;;;;;;;42.30;27.13;;;10.20;99.90;;;;;;5086091;28;20210;-78
2021/03/03 07:11:50;;;;;;;40.57;26.47;;;10.20;99.90;;;;;;5080922;28;20183;-78
2021/03/03 07:14:18;;;;;;;51.83;28.33;;;10.10;99.90;;;;;;5086537;28;20542;-79
2021/03/03 07:17:06;;;;;;;53.93;31.13;;;10.10;99.90;;;;;;5098880;28;20163;-77
2021/03/03 07:19:33;;;;;;;55.33;31.37;;;10.20;99.90;;;;;;5095806;28;20619;-78
2021/03/03 07:21:58;;;;;;;46.57;29.30;;;10.20;99.90;;;;;;5095251;28;20168;-78
2021/03/03 07:24:25;;;;;;;58.57;28.20;;;10.40;99.90;;;;;;5089270;28;20743;-77
2021/03/03 07:26:52;;;;;;;49.17;27.70;;;10.50;99.90;;;;;;5080458;28;20644;-78
2021/03/03 07:29:18;;;;;;;54.70;28.43;;;10.60;99.90;;;;;;5076821;28;20369;-77
2021/03/03 07:31:44;;;;;;;52.80;28.93;;;10.60;99.90;;;;;;5081125;28;20243;-78
2021/03/03 07:34:12;;;;;;;47.30;27.73;;;10.70;99.90;;;;;;5094464;28;20271;-81
2021/03/03 07:36:40;;;;;;;47.97;27.07;;;10.80;99.90;;;;;;5092109;28;20178;-79
2021/03/03 07:39:08;;;;;;;49.57;28.17;;;10.80;99.90;;;;;;5092914;28;20175;-79
2021/03/03 07:41:48;;;;;;;47.40;27.73;;;10.70;99.90;;;;;;5093882;28;20174;-78
2021/03/03 07:44:21;;;;;;;42.13;26.17;;;10.70;99.90;;;;;;5096595;28;20206;-79
2021/03/03 07:46:49;;;;;;;44.97;27.67;;;10.80;99.90;;;;;;5098474;28;20175;-85
2021/03/03 07:49:21;;;;;;;48.50;28.50;;;10.80;99.90;;;;;;5094439;28;20213;-81
2021/03/03 07:51:47;;;;;;;46.87;27.57;;;11.00;99.90;;;;;;5096876;28;20204;-85
2021/03/03 07:54:13;;;;;;;43.87;26.77;;;10.90;99.90;;;;;;5096210;28;20168;-81
2021/03/03 07:56:40;;;;;;;42.90;27.23;;;11.00;99.90;;;;;;5093571;28;20247;-81
2021/03/03 07:59:08;;;;;;;52.70;28.93;;;11.00;99.90;;;;;;5095085;28;20616;-79
2021/03/03 08:01:35;;;;;;;38.40;27.57;;;11.20;99.90;;;;;;5094078;28;20176;-82
2021/03/03 08:04:01;;;;;;;37.80;28.17;;;11.30;99.90;;;;;;5094979;28;20207;-79
2021/03/03 08:06:36;;;;;;;44.07;26.10;;;11.30;99.90;;;;;;5077164;28;20199;-81
2021/03/03 08:09:13;;;;;;;40.37;26.63;;;11.40;99.90;;;;;;5094615;28;20159;-81
2021/03/03 08:11:44;;;;;;;47.77;27.43;;;11.60;99.90;;;;;;5094192;28;20282;-79
2021/03/03 08:14:31;;;;;;;46.87;28.57;;;11.70;99.90;;;;;;5092962;28;20168;-81
2021/03/03 08:17:01;;;;;;;46.23;26.93;;;11.70;99.90;;;;;;5093822;28;20167;-82
2021/03/03 08:20:04;;;;;;;38.60;26.60;;;11.70;99.90;;;;;;5095340;28;20204;-84
2021/03/03 08:22:53;;;;;;;40.30;26.87;;;11.80;99.90;;;;;;5036370;28;20242;-77
2021/03/03 08:25:44;;;;;;;45.37;26.60;;;11.80;99.90;;;;;;5095194;28;20225;-79
2021/03/03 08:28:33;;;;;;;47.90;27.47;;;11.80;99.90;;;;;;5098796;28;20246;-80
2021/03/03 08:31:13;;;;;;;44.93;28.10;;;11.80;99.90;;;;;;5098236;28;20184;-78
2021/03/03 08:33:41;;;;;;;43.63;27.17;;;11.90;99.90;;;;;;5097047;28;20171;-80
2021/03/03 08:36:31;;;;;;;39.00;25.83;;;12.00;99.90;;;;;;5094785;28;20160;-80
2021/03/03 08:39:05;;;;;;;36.27;26.77;;;12.20;99.90;;;;;;5096328;28;20160;-81
2021/03/03 08:41:35;;;;;;;40.87;25.90;;;12.30;99.90;;;;;;5079855;28;20168;-79
2021/03/03 08:44:12;;;;;;;40.87;27.27;;;12.30;99.90;;;;;;5095708;28;20191;-78
2021/03/03 08:46:41;;;;;;;42.23;26.10;;;12.40;99.90;;;;;;5098063;28;20257;-78
2021/03/03 08:49:06;;;;;;;39.63;26.07;;;12.60;99.90;;;;;;5099211;28;20649;-78
2021/03/03 08:51:42;;;;;;;41.30;25.93;;;12.80;99.90;;;;;;5091497;28;20187;-77
2021/03/03 08:54:14;;;;;;;35.63;25.73;;;12.90;99.90;;;;;;5078332;28;20164;-79
2021/03/03 08:56:52;;;;;;;36.37;26.03;;;13.00;99.90;;;;;;5097931;28;20171;-81
2021/03/03 08:59:28;;;;;;;41.77;25.53;;;12.90;99.90;;;;;;5099025;28;20175;-78
2021/03/03 09:02:17;;;;;;;40.97;24.33;;;12.90;99.90;;;;;;5094955;28;20179;-80
2021/03/03 09:04:48;;;;;;;42.97;24.90;;;12.70;99.90;;;;;;5074883;28;20200;-80
2021/03/03 09:07:20;;;;;;;39.63;25.00;;;12.80;99.90;;;;;;5081924;28;20636;-78
2021/03/03 09:09:51;;;;;;;39.97;24.97;;;12.70;99.90;;;;;;5095282;28;20200;-84
2021/03/03 09:12:30;;;;;;;39.90;25.10;;;12.70;99.90;;;;;;5094934;28;20187;-80
2021/03/03 09:14:58;;;;;;;36.23;24.70;;;12.90;99.90;;;;;;5094318;28;20228;-76
2021/03/03 09:17:29;;;;;;;46.30;25.03;;;13.10;99.90;;;;;;5092910;28;20652;-80
2021/03/03 09:19:59;;;;;;;37.53;24.27;;;13.30;99.90;;;;;;5093868;28;20172;-79
2021/03/03 09:22:40;;;;;;;34.83;24.57;;;13.30;99.90;;;;;;5095466;28;20201;-79
2021/03/03 09:25:21;;;;;;;44.73;25.13;;;13.30;99.90;;;;;;5096892;28;20206;-79
2021/03/03 09:27:49;;;;;;;38.70;24.47;;;13.50;99.90;;;;;;5085440;28;20182;-79
2021/03/03 09:30:16;;;;;;;41.90;25.03;;;13.60;99.90;;;;;;5095681;28;20181;-77
2021/03/03 09:32:45;;;;;;;38.63;24.87;;;13.80;99.90;;;;;;5097030;28;20239;-78
2021/03/03 09:35:13;;;;;;;44.23;25.17;;;13.90;99.90;;;;;;5096644;28;20433;-77
2021/03/03 09:37:47;;;;;;;45.43;26.40;;;14.00;99.90;;;;;;5099696;28;20173;-82
2021/03/03 09:40:15;;;;;;;36.80;24.33;;;14.20;99.90;;;;;;5099957;28;20619;-83
2021/03/03 09:42:47;;;;;;;36.27;24.23;;;14.10;99.90;;;;;;5103338;28;20189;-84
2021/03/03 09:45:24;;;;;;;40.40;24.53;;;14.30;99.90;;;;;;5102151;28;20224;-86
2021/03/03 09:47:51;;;;;;;36.93;24.77;;;14.50;99.90;;;;;;5107414;28;20164;-84
2021/03/03 09:50:21;;;;;;;47.30;25.20;;;14.60;99.90;;;;;;5096154;28;20663;-83
2021/03/03 09:52:53;;;;;;;46.67;25.43;;;14.60;99.90;;;;;;5094508;28;20193;-85
2021/03/03 09:55:21;;;;;;;44.13;24.83;;;14.70;99.90;;;;;;5084644;28;20210;-85
2021/03/03 09:57:52;;;;;;;36.80;24.23;;;14.80;99.90;;;;;;5079361;28;20174;-84
2021/03/03 10:00:19;;;;;;;40.10;24.47;;;15.00;99.90;;;;;;5093333;28;20278;-84
2021/03/03 10:02:52;;;;;;;37.63;24.30;;;15.10;99.90;;;;;;5101974;28;20172;-81
2021/03/03 10:05:29;;;;;;;32.13;23.67;;;15.20;99.90;;;;;;5103058;28;20291;-83
2021/03/03 10:07:57;;;;;;;35.67;23.97;;;15.20;99.90;;;;;;5101808;28;20590;-85
2021/03/03 10:10:26;;;;;;;37.20;23.77;;;15.30;99.90;;;;;;5095638;28;20674;-80
2021/03/03 10:12:52;;;;;;;34.90;22.47;;;15.50;99.90;;;;;;5094933;28;20160;-75
2021/03/03 10:15:28;;;;;;;39.00;24.70;;;15.60;99.90;;;;;;5098128;28;20178;-81
2021/03/03 10:17:58;;;;;;;37.73;23.73;;;15.60;99.90;;;;;;5091338;28;20186;-82
2021/03/03 10:20:36;;;;;;;36.17;23.87;;;15.40;99.90;;;;;;5079412;28;20172;-83
2021/03/03 10:23:13;;;;;;;34.10;23.90;;;15.50;99.90;;;;;;5081660;28;20175;-84
2021/03/03 10:25:41;;;;;;;33.87;22.63;;;15.40;99.90;;;;;;5078264;28;20200;-82
2021/03/03 10:28:28;;;;;;;35.93;24.37;;;15.30;99.90;;;;;;5079460;28;20177;-84
2021/03/03 10:31:05;;;;;;;36.00;24.03;;;15.30;99.90;;;;;;5079398;28;20186;-83
2021/03/03 10:33:31;;;;;;;35.43;24.33;;;15.20;99.90;;;;;;5085094;28;20184;-82
2021/03/03 10:36:01;;;;;;;41.13;24.33;;;15.20;99.90;;;;;;5078803;28;20197;-82
2021/03/03 10:38:28;;;;;;;35.60;23.50;;;15.00;99.90;;;;;;5098088;28;20164;-81
2021/03/03 10:40:59;;;;;;;36.60;23.40;;;15.00;99.90;;;;;;5097387;28;20169;-79
2021/03/03 10:43:26;;;;;;;33.83;23.50;;;15.00;99.90;;;;;;5098643;28;20184;-83
2021/03/03 10:46:12;;;;;;;34.27;21.97;;;15.00;99.90;;;;;;5098010;28;20169;-83
2021/03/03 10:48:39;;;;;;;35.30;22.30;;;15.20;99.90;;;;;;5098532;28;20191;-80
2021/03/03 10:51:06;;;;;;;36.13;23.80;;;15.30;99.90;;;;;;5098209;28;20611;-81
2021/03/03 10:53:52;;;;;;;33.80;22.87;;;15.30;99.90;;;;;;5095238;28;20179;-80
2021/03/03 10:56:21;;;;;;;37.93;22.97;;;15.40;99.90;;;;;;5099234;28;20325;-81
2021/03/03 10:58:48;;;;;;;32.57;22.03;;;15.50;99.90;;;;;;5099505;28;20166;-79
2021/03/03 11:01:18;;;;;;;35.47;25.10;;;15.50;99.90;;;;;;5101550;28;20192;-83
2021/03/03 11:03:59;;;;;;;33.57;23.57;;;15.50;99.90;;;;;;5102185;28;20745;-83
2021/03/03 11:06:32;;;;;;;35.60;21.97;;;15.60;99.90;;;;;;5098646;28;20173;-83
2021/03/03 11:08:58;;;;;;;36.80;23.90;;;15.30;99.90;;;;;;5099490;28;20176;-83
2021/03/03 11:11:24;;;;;;;38.90;22.90;;;15.20;99.90;;;;;;5099576;28;20285;-79
2021/03/03 11:13:50;;;;;;;33.53;22.37;;;15.30;99.90;;;;;;5099183;28;20589;-78
2021/03/03 11:16:15;;;;;;;34.33;22.93;;;15.50;99.90;;;;;;5095790;28;20191;-80
2021/03/03 11:18:42;;;;;;;33.17;22.73;;;15.40;99.90;;;;;;5098437;28;20182;-82
2021/03/03 11:21:08;;;;;;;36.70;23.20;;;15.70;99.90;;;;;;5095688;28;20226;-85
2021/03/03 11:23:34;;;;;;;31.63;21.87;;;15.80;99.90;;;;;;5098672;28;20195;-78
2021/03/03 11:26:00;;;;;;;35.67;22.73;;;15.90;99.90;;;;;;5096630;28;20271;-79
2021/03/03 11:28:27;;;;;;;29.30;21.63;;;16.10;99.90;;;;;;5098335;28;20195;-81
2021/03/03 11:30:56;;;;;;;37.37;21.23;;;16.40;99.90;;;;;;5097829;28;20197;-84
2021/03/03 11:33:24;;;;;;;32.70;20.57;;;16.40;99.90;;;;;;5096488;28;20691;-82
2021/03/03 11:35:50;;;;;;;31.97;21.57;;;16.40;99.90;;;;;;5098830;28;20175;-86
2021/03/03 11:38:17;;;;;;;32.67;21.57;;;16.30;99.90;;;;;;5103748;28;20259;-81
2021/03/03 11:40:42;;;;;;;32.13;20.37;;;16.50;99.90;;;;;;5104240;28;20171;-84
2021/03/03 11:43:08;;;;;;;34.13;21.57;;;16.40;99.90;;;;;;5099593;28;20159;-85
2021/03/03 11:45:40;;;;;;;35.03;21.23;;;16.40;99.90;;;;;;5097539;28;20229;-84
2021/03/03 11:48:06;;;;;;;34.83;21.03;;;16.40;99.90;;;;;;5096891;28;20167;-84
2021/03/03 11:50:32;;;;;;;34.27;21.93;;;16.70;99.90;;;;;;5094763;28;20199;-80
2021/03/03 11:53:02;;;;;;;32.60;21.60;;;16.70;99.90;;;;;;5100065;28;20706;-85
2021/03/03 11:55:28;;;;;;;28.80;19.80;;;16.80;99.90;;;;;;5097597;28;20178;-81
2021/03/03 11:57:54;;;;;;;33.30;21.50;;;16.80;99.90;;;;;;5098578;28;20266;-80
2021/03/03 12:00:20;;;;;;;30.60;18.67;;;16.90;99.90;;;;;;5086194;28;20241;-81
2021/03/03 12:02:46;;;;;;;31.83;19.23;;;17.10;99.90;;;;;;5087739;28;20188;-79
2021/03/03 12:05:13;;;;;;;33.47;17.93;;;17.00;99.90;;;;;;5089402;28;20207;-80
2021/03/03 12:07:42;;;;;;;25.07;16.57;;;16.90;99.90;;;;;;5092548;28;20175;-82
2021/03/03 12:10:08;;;;;;;28.70;18.27;;;17.10;99.90;;;;;;5095065;28;20176;-81
2021/03/03 12:12:35;;;;;;;25.37;15.70;;;17.20;99.90;;;;;;5084814;28;20191;-80
2021/03/03 12:15:02;;;;;;;28.50;17.83;;;17.10;99.90;;;;;;5083630;28;20168;-85
2021/03/03 12:17:28;;;;;;;29.60;16.50;;;17.00;99.90;;;;;;5099238;28;20199;-85
2021/03/03 12:19:54;;;;;;;27.23;16.90;;;17.00;99.90;;;;;;5099330;28;20190;-83
2021/03/03 12:22:29;;;;;;;23.17;14.93;;;17.10;99.90;;;;;;5097539;28;20179;-87
2021/03/03 12:24:55;;;;;;;25.07;16.10;;;17.20;99.90;;;;;;5097691;28;20270;-84
2021/03/03 12:27:22;;;;;;;26.43;16.53;;;17.40;99.90;;;;;;5101284;28;20172;-83
2021/03/03 12:30:06;;;;;;;24.37;16.07;;;17.50;99.90;;;;;;5104865;28;20628;-86
2021/03/03 12:32:32;;;;;;;27.20;16.27;;;17.60;99.90;;;;;;5105017;28;20183;-81
2021/03/03 12:34:58;;;;;;;28.73;15.57;;;17.70;99.90;;;;;;5103902;28;20183;-79
2021/03/03 12:37:24;;;;;;;28.53;16.03;;;17.90;99.90;;;;;;5099146;28;20176;-79
2021/03/03 12:39:52;;;;;;;25.90;15.80;;;17.90;99.90;;;;;;5130659;28;20676;-79